createdAt,value
2018-03-17T00:00:36.644Z,0
2018-03-17T00:01:36.091Z,0
2018-03-17T00:02:36.596Z,0
2018-03-17T00:03:37.159Z,0
2018-03-17T00:04:36.816Z,0
2018-03-17T00:05:35.989Z,0
2018-03-17T00:06:36.491Z,0
2018-03-17T00:07:36.476Z,0
2018-03-17T00:08:36.712Z,0
2018-03-17T00:09:36.424Z,0
2018-03-17T00:10:36.138Z,0
2018-03-17T00:11:36.108Z,0
2018-03-17T00:12:36.344Z,0
2018-03-17T00:13:36.054Z,0
2018-03-17T00:14:36.296Z,0
2018-03-17T00:15:36.277Z,0
2018-03-17T00:16:36.516Z,0
2018-03-17T00:17:36.762Z,0
2018-03-17T00:18:36.198Z,0
2018-03-17T00:19:36.700Z,0
2018-03-17T00:20:36.693Z,0
2018-03-17T00:21:36.130Z,0
2018-03-17T00:22:36.639Z,0
2018-03-17T00:23:36.346Z,0
2018-03-17T00:24:36.318Z,0
2018-03-17T00:25:36.282Z,0
2018-03-17T00:26:36.009Z,0
2018-03-17T00:27:35.981Z,0
2018-03-17T00:28:36.480Z,0
2018-03-17T00:29:36.204Z,0
2018-03-17T00:30:35.905Z,0
2018-03-17T00:31:35.880Z,0
2018-03-17T00:32:35.849Z,0
2018-03-17T00:33:35.826Z,0
2018-03-17T00:34:35.810Z,0
2018-03-17T00:35:35.515Z,0
2018-03-17T00:36:36.027Z,0
2018-03-17T00:37:35.994Z,0
2018-03-17T00:38:35.969Z,0
2018-03-17T00:39:35.727Z,0
2018-03-17T00:40:35.917Z,0
2018-03-17T00:41:35.896Z,0
2018-03-17T00:42:35.863Z,0
2018-03-17T00:43:35.832Z,0
2018-03-17T00:44:35.296Z,0
2018-03-17T00:45:35.792Z,0
2018-03-17T00:46:36.028Z,0
2018-03-17T00:47:35.755Z,0
2018-03-17T00:48:35.723Z,0
2018-03-17T00:49:35.714Z,0
2018-03-17T00:50:35.143Z,0
2018-03-17T00:51:35.647Z,0
2018-03-17T00:52:35.639Z,0
2018-03-17T00:53:35.063Z,0
2018-03-17T00:54:35.565Z,0
2018-03-17T00:55:35.549Z,0
2018-03-17T00:56:34.977Z,0
2018-03-17T00:57:35.289Z,0
2018-03-17T00:58:35.209Z,0
2018-03-17T00:59:35.704Z,0
2018-03-17T01:00:35.155Z,0
2018-03-17T01:01:35.416Z,0
2018-03-17T01:02:35.366Z,0
2018-03-17T01:03:35.346Z,0
2018-03-17T01:04:35.049Z,0
2018-03-17T01:05:35.303Z,0
2018-03-17T01:06:35.003Z,0
2018-03-17T01:07:34.991Z,0
2018-03-17T01:08:34.944Z,0
2018-03-17T01:09:34.923Z,0
2018-03-17T01:10:35.167Z,0
2018-03-17T01:11:34.611Z,0
2018-03-17T01:12:35.120Z,0
2018-03-17T01:13:35.143Z,0
2018-03-17T01:14:34.799Z,0
2018-03-17T01:15:35.046Z,0
2018-03-17T01:16:34.216Z,0
2018-03-17T01:17:34.734Z,0
2018-03-17T01:18:34.961Z,0
2018-03-17T01:19:34.680Z,0
2018-03-17T01:20:34.662Z,0
2018-03-17T01:21:34.373Z,0
2018-03-17T01:22:34.594Z,0
2018-03-17T01:23:34.851Z,0
2018-03-17T01:24:34.285Z,0
2018-03-17T01:25:34.574Z,0
2018-03-17T01:26:34.762Z,0
2018-03-17T01:27:34.747Z,0
2018-03-17T01:28:34.713Z,0
2018-03-17T01:29:34.436Z,0
2018-03-17T01:30:34.134Z,0
2018-03-17T01:31:34.374Z,0
2018-03-17T01:32:34.873Z,0
2018-03-17T01:33:34.324Z,0
2018-03-17T01:34:34.035Z,0
2018-03-17T01:35:34.540Z,0
2018-03-17T01:36:33.983Z,0
2018-03-17T01:37:34.220Z,0
2018-03-17T01:38:34.199Z,0
2018-03-17T01:39:33.647Z,0
2018-03-17T01:40:34.424Z,0
2018-03-17T01:41:34.124Z,0
2018-03-17T01:42:34.107Z,0
2018-03-17T01:43:34.066Z,0
2018-03-17T01:44:34.055Z,0
2018-03-17T01:45:34.024Z,0
2018-03-17T01:46:33.733Z,0
2018-03-17T01:47:33.972Z,0
2018-03-17T01:48:34.213Z,0
2018-03-17T01:49:34.128Z,0
2018-03-17T01:50:34.433Z,0
2018-03-17T01:51:33.601Z,0
2018-03-17T01:52:33.844Z,0
2018-03-17T01:53:33.817Z,0
2018-03-17T01:54:34.056Z,0
2018-03-17T01:55:33.500Z,0
2018-03-17T01:56:33.752Z,0
2018-03-17T01:57:34.245Z,0
2018-03-17T01:58:33.960Z,0
2018-03-17T01:59:33.678Z,0
2018-03-17T02:00:33.378Z,0
2018-03-17T02:01:33.356Z,0
2018-03-17T02:02:33.858Z,0
2018-03-17T02:03:33.574Z,0
2018-03-17T02:04:33.282Z,0
2018-03-17T02:05:33.522Z,0
2018-03-17T02:06:33.011Z,0
2018-03-17T02:07:33.729Z,0
2018-03-17T02:08:33.711Z,0
2018-03-17T02:09:33.426Z,0
2018-03-17T02:10:33.398Z,0
2018-03-17T02:11:33.426Z,0
2018-03-17T02:12:33.084Z,0
2018-03-17T02:13:33.315Z,0
2018-03-17T02:14:33.295Z,0
2018-03-17T02:15:33.534Z,0
2018-03-17T02:16:33.241Z,0
2018-03-17T02:17:33.226Z,0
2018-03-17T02:18:32.931Z,0
2018-03-17T02:19:32.903Z,0
2018-03-17T02:20:33.685Z,0
2018-03-17T02:21:33.171Z,0
2018-03-17T02:22:33.361Z,0
2018-03-17T02:23:33.088Z,0
2018-03-17T02:24:32.518Z,0
2018-03-17T02:25:33.011Z,0
2018-03-17T02:26:33.257Z,0
2018-03-17T02:27:33.234Z,0
2018-03-17T02:28:33.207Z,0
2018-03-17T02:29:32.669Z,0
2018-03-17T02:30:33.436Z,0
2018-03-17T02:31:33.155Z,0
2018-03-17T02:32:33.125Z,0
2018-03-17T02:33:32.302Z,0
2018-03-17T02:34:32.538Z,0
2018-03-17T02:35:32.774Z,0
2018-03-17T02:36:33.021Z,0
2018-03-17T02:37:32.464Z,0
2018-03-17T02:38:32.967Z,0
2018-03-17T02:39:32.681Z,0
2018-03-17T02:40:32.665Z,0
2018-03-17T02:41:32.627Z,0
2018-03-17T02:42:32.863Z,0
2018-03-17T02:43:32.056Z,0
2018-03-17T02:44:32.546Z,0
2018-03-17T02:45:32.816Z,0
2018-03-17T02:46:32.232Z,0
2018-03-17T02:47:32.477Z,0
2018-03-17T02:48:32.197Z,0
2018-03-17T02:49:32.765Z,0
2018-03-17T02:50:32.146Z,0
2018-03-17T02:51:32.380Z,0
2018-03-17T02:52:32.156Z,0
2018-03-17T02:53:32.076Z,0
2018-03-17T02:54:32.039Z,0
2018-03-17T02:55:32.549Z,0
2018-03-17T02:56:32.776Z,0
2018-03-17T02:57:32.493Z,0
2018-03-17T02:58:31.938Z,0
2018-03-17T02:59:31.915Z,0
2018-03-17T03:00:31.888Z,0
2018-03-17T03:01:32.422Z,0
2018-03-17T03:02:32.111Z,0
2018-03-17T03:03:32.076Z,0
2018-03-17T03:04:32.041Z,0
2018-03-17T03:05:32.039Z,0
2018-03-17T03:06:31.995Z,0
2018-03-17T03:07:32.256Z,0
2018-03-17T03:08:32.209Z,0
2018-03-17T03:09:32.185Z,0
2018-03-17T03:10:31.927Z,0
2018-03-17T03:11:31.864Z,0
2018-03-17T03:12:32.107Z,0
2018-03-17T03:13:31.938Z,0
2018-03-17T03:14:31.536Z,0
2018-03-17T03:15:31.230Z,0
2018-03-17T03:16:31.741Z,0
2018-03-17T03:17:31.713Z,0
2018-03-17T03:18:31.688Z,0
2018-03-17T03:19:31.128Z,0
2018-03-17T03:20:31.898Z,0
2018-03-17T03:21:31.077Z,0
2018-03-17T03:22:31.584Z,0
2018-03-17T03:23:31.292Z,0
2018-03-17T03:24:31.801Z,0
2018-03-17T03:25:32.032Z,0
2018-03-17T03:26:31.478Z,0
2018-03-17T03:27:31.990Z,0
2018-03-17T03:28:31.452Z,0
2018-03-17T03:29:31.934Z,0
2018-03-17T03:30:31.129Z,0
2018-03-17T03:31:31.371Z,0
2018-03-17T03:32:31.343Z,0
2018-03-17T03:33:31.304Z,0
2018-03-17T03:34:31.279Z,0
2018-03-17T03:35:31.252Z,0
2018-03-17T03:36:31.224Z,0
2018-03-17T03:37:31.204Z,0
2018-03-17T03:38:31.180Z,0
2018-03-17T03:39:31.416Z,0
2018-03-17T03:40:31.124Z,0
2018-03-17T03:41:31.096Z,0
2018-03-17T03:42:31.337Z,0
2018-03-17T03:43:31.309Z,0
2018-03-17T03:44:30.755Z,0
2018-03-17T03:45:31.274Z,0
2018-03-17T03:46:30.704Z,0
2018-03-17T03:47:31.482Z,0
2018-03-17T03:48:30.696Z,0
2018-03-17T03:49:31.365Z,0
2018-03-17T03:50:30.640Z,0
2018-03-17T03:51:30.581Z,0
2018-03-17T03:52:30.560Z,0
2018-03-17T03:53:31.094Z,0
2018-03-17T03:54:30.763Z,0
2018-03-17T03:55:30.486Z,0
2018-03-17T03:56:30.720Z,0
2018-03-17T03:57:30.694Z,0
2018-03-17T03:58:30.929Z,0
2018-03-17T03:59:31.173Z,0
2018-03-17T04:00:30.348Z,0
2018-03-17T04:01:30.856Z,0
2018-03-17T04:02:30.564Z,0
2018-03-17T04:03:31.126Z,0
2018-03-17T04:04:30.243Z,0
2018-03-17T04:05:30.485Z,0
2018-03-17T04:06:29.930Z,0
2018-03-17T04:07:30.962Z,0
2018-03-17T04:08:30.672Z,0
2018-03-17T04:09:30.387Z,0
2018-03-17T04:10:30.359Z,0
2018-03-17T04:11:30.331Z,0
2018-03-17T04:12:30.321Z,0
2018-03-17T04:13:30.275Z,0
2018-03-17T04:14:30.527Z,0
2018-03-17T04:15:30.491Z,0
2018-03-17T04:16:29.937Z,0
2018-03-17T04:17:30.710Z,0
2018-03-17T04:18:30.686Z,0
2018-03-17T04:19:29.871Z,0
2018-03-17T04:20:30.101Z,0
2018-03-17T04:21:30.070Z,0
2018-03-17T04:22:30.312Z,0
2018-03-17T04:23:30.019Z,0
2018-03-17T04:24:30.262Z,0
2018-03-17T04:25:29.965Z,0
2018-03-17T04:26:30.214Z,0
2018-03-17T04:27:29.921Z,0
2018-03-17T04:28:30.526Z,0
2018-03-17T04:29:29.872Z,0
2018-03-17T04:30:29.839Z,0
2018-03-17T04:31:29.820Z,0
2018-03-17T04:32:29.788Z,0
2018-03-17T04:33:30.023Z,0
2018-03-17T04:34:29.739Z,0
2018-03-17T04:35:29.447Z,0
2018-03-17T04:36:29.695Z,0
2018-03-17T04:37:29.656Z,0
2018-03-17T04:38:29.636Z,0
2018-03-17T04:39:29.605Z,0
2018-03-17T04:40:29.314Z,0
2018-03-17T04:41:29.819Z,0
2018-03-17T04:42:29.792Z,0
2018-03-17T04:43:29.774Z,0
2018-03-17T04:44:29.472Z,0
2018-03-17T04:45:29.455Z,0
2018-03-17T04:46:29.171Z,0
2018-03-17T04:47:29.402Z,0
2018-03-17T04:48:29.421Z,0
2018-03-17T04:49:29.924Z,0
2018-03-17T04:50:29.322Z,0
2018-03-17T04:51:29.615Z,0
2018-03-17T04:52:29.330Z,0
2018-03-17T04:53:29.509Z,0
2018-03-17T04:54:29.215Z,0
2018-03-17T04:55:29.459Z,0
2018-03-17T04:56:29.704Z,0
2018-03-17T04:57:29.147Z,0
2018-03-17T04:58:29.112Z,0
2018-03-17T04:59:28.873Z,0
2018-03-17T05:00:29.067Z,0
2018-03-17T05:01:28.514Z,0
2018-03-17T05:02:28.743Z,0
2018-03-17T05:03:29.512Z,0
2018-03-17T05:04:28.696Z,0
2018-03-17T05:05:29.202Z,0
2018-03-17T05:06:28.920Z,0
2018-03-17T05:07:29.154Z,0
2018-03-17T05:08:29.128Z,0
2018-03-17T05:09:29.117Z,0
2018-03-17T05:10:29.087Z,0
2018-03-17T05:11:28.516Z,0
2018-03-17T05:12:29.286Z,0
2018-03-17T05:13:28.462Z,0
2018-03-17T05:14:28.968Z,0
2018-03-17T05:15:28.427Z,0
2018-03-17T05:16:28.389Z,0
2018-03-17T05:17:28.900Z,0
2018-03-17T05:18:28.855Z,0
2018-03-17T05:19:28.573Z,0
2018-03-17T05:20:29.080Z,0
2018-03-17T05:21:28.780Z,0
2018-03-17T05:22:28.752Z,0
2018-03-17T05:23:28.196Z,0
2018-03-17T05:24:28.435Z,0
2018-03-17T05:25:28.155Z,0
2018-03-17T05:26:28.654Z,0
2018-03-17T05:27:28.360Z,0
2018-03-17T05:28:28.598Z,0
2018-03-17T05:29:28.336Z,0
2018-03-17T05:30:28.021Z,0
2018-03-17T05:31:27.721Z,0
2018-03-17T05:32:28.775Z,0
2018-03-17T05:33:28.555Z,0
2018-03-17T05:34:28.707Z,0
2018-03-17T05:35:28.447Z,0
2018-03-17T05:36:28.121Z,0
2018-03-17T05:37:28.103Z,0
2018-03-17T05:38:28.340Z,0
2018-03-17T05:39:28.616Z,0
2018-03-17T05:40:28.281Z,0
2018-03-17T05:41:27.998Z,0
2018-03-17T05:42:27.987Z,0
2018-03-17T05:43:28.551Z,0
2018-03-17T05:44:27.649Z,0
2018-03-17T05:45:28.155Z,0
2018-03-17T05:46:28.189Z,0
2018-03-17T05:47:28.272Z,0
2018-03-17T05:48:27.814Z,0
2018-03-17T05:49:28.266Z,5
2018-03-17T05:50:27.851Z,5
2018-03-17T05:51:27.736Z,5
2018-03-17T05:52:27.708Z,5
2018-03-17T05:53:27.966Z,5
2018-03-17T05:54:28.192Z,5
2018-03-17T05:55:28.157Z,5
2018-03-17T05:56:27.602Z,10
2018-03-17T05:57:27.839Z,10
2018-03-17T05:58:27.598Z,10
2018-03-17T05:59:27.835Z,10
2018-03-17T06:00:28.036Z,10
2018-03-17T06:01:27.210Z,10
2018-03-17T06:02:27.450Z,10
2018-03-17T06:03:27.420Z,15
2018-03-17T06:04:28.016Z,15
2018-03-17T06:05:27.962Z,15
2018-03-17T06:06:27.871Z,15
2018-03-17T06:07:27.591Z,15
2018-03-17T06:08:27.615Z,15
2018-03-17T06:09:27.561Z,15
2018-03-17T06:10:27.573Z,20
2018-03-17T06:11:27.220Z,20
2018-03-17T06:12:26.923Z,20
2018-03-17T06:13:27.703Z,20
2018-03-17T06:14:27.440Z,20
2018-03-17T06:15:26.581Z,20
2018-03-17T06:16:26.826Z,20
2018-03-17T06:17:26.804Z,15
2018-03-17T06:18:27.557Z,15
2018-03-17T06:19:26.747Z,20
2018-03-17T06:20:27.032Z,20
2018-03-17T06:21:26.962Z,25
2018-03-17T06:22:27.472Z,25
2018-03-17T06:23:27.298Z,25
2018-03-17T06:24:26.872Z,25
2018-03-17T06:25:27.215Z,30
2018-03-17T06:26:27.088Z,25
2018-03-17T06:27:26.814Z,25
2018-03-17T06:28:27.309Z,25
2018-03-17T06:29:27.008Z,25
2018-03-17T06:30:26.714Z,25
2018-03-17T06:31:26.432Z,25
2018-03-17T06:32:26.706Z,30
2018-03-17T06:33:26.646Z,30
2018-03-17T06:34:26.633Z,30
2018-03-17T06:35:26.850Z,35
2018-03-17T06:36:26.630Z,35
2018-03-17T06:37:26.535Z,40
2018-03-17T06:38:26.253Z,40
2018-03-17T06:39:26.756Z,40
2018-03-17T06:40:26.461Z,35
2018-03-17T06:41:26.178Z,35
2018-03-17T06:42:25.877Z,35
2018-03-17T06:43:26.413Z,30
2018-03-17T06:44:25.823Z,30
2018-03-17T06:45:26.328Z,25
2018-03-17T06:46:26.292Z,30
2018-03-17T06:47:26.538Z,35
2018-03-17T06:48:25.983Z,30
2018-03-17T06:49:26.477Z,40
2018-03-17T06:50:26.462Z,40
2018-03-17T06:51:26.426Z,40
2018-03-17T06:52:25.872Z,45
2018-03-17T06:53:26.385Z,45
2018-03-17T06:54:26.086Z,45
2018-03-17T06:55:25.849Z,35
2018-03-17T06:56:26.291Z,30
2018-03-17T06:57:26.269Z,30
2018-03-17T06:58:25.720Z,30
2018-03-17T06:59:26.221Z,25
2018-03-17T07:00:25.931Z,35
2018-03-17T07:01:26.438Z,35
2018-03-17T07:02:25.881Z,35
2018-03-17T07:03:26.149Z,35
2018-03-17T07:04:25.585Z,40
2018-03-17T07:05:25.540Z,40
2018-03-17T07:06:25.780Z,40
2018-03-17T07:07:26.051Z,40
2018-03-17T07:08:25.717Z,40
2018-03-17T07:09:25.696Z,40
2018-03-17T07:10:26.208Z,35
2018-03-17T07:11:25.699Z,40
2018-03-17T07:12:26.043Z,35
2018-03-17T07:13:25.598Z,45
2018-03-17T07:14:25.605Z,45
2018-03-17T07:15:26.076Z,45
2018-03-17T07:16:25.774Z,45
2018-03-17T07:17:25.484Z,50
2018-03-17T07:18:25.466Z,45
2018-03-17T07:19:25.734Z,50
2018-03-17T07:20:25.681Z,50
2018-03-17T07:21:25.388Z,45
2018-03-17T07:22:25.627Z,45
2018-03-17T07:23:25.633Z,45
2018-03-17T07:24:25.049Z,45
2018-03-17T07:25:25.574Z,50
2018-03-17T07:26:25.249Z,55
2018-03-17T07:27:25.770Z,45
2018-03-17T07:28:25.201Z,50
2018-03-17T07:29:25.437Z,50
2018-03-17T07:30:24.883Z,55
2018-03-17T07:31:25.121Z,50
2018-03-17T07:32:25.363Z,50
2018-03-17T07:33:24.809Z,50
2018-03-17T07:34:25.326Z,55
2018-03-17T07:35:25.284Z,55
2018-03-17T07:36:25.271Z,55
2018-03-17T07:37:25.234Z,55
2018-03-17T07:38:24.951Z,50
2018-03-17T07:39:24.920Z,55
2018-03-17T07:40:25.163Z,55
2018-03-17T07:41:24.874Z,50
2018-03-17T07:42:24.846Z,45
2018-03-17T07:43:25.078Z,50
2018-03-17T07:44:25.048Z,45
2018-03-17T07:45:25.329Z,50
2018-03-17T07:46:24.732Z,45
2018-03-17T07:47:24.970Z,45
2018-03-17T07:48:24.964Z,45
2018-03-17T07:49:24.858Z,50
2018-03-17T07:50:24.888Z,50
2018-03-17T07:51:24.358Z,55
2018-03-17T07:52:24.567Z,55
2018-03-17T07:53:25.078Z,55
2018-03-17T07:54:24.778Z,60
2018-03-17T07:55:24.225Z,55
2018-03-17T07:56:24.467Z,60
2018-03-17T07:57:24.973Z,55
2018-03-17T07:58:24.428Z,55
2018-03-17T07:59:24.667Z,60
2018-03-17T08:00:24.639Z,65
2018-03-17T08:01:24.604Z,70
2018-03-17T08:02:24.591Z,85
2018-03-17T08:03:24.282Z,95
2018-03-17T08:04:24.526Z,95
2018-03-17T08:05:24.514Z,100
2018-03-17T08:06:24.218Z,100
2018-03-17T08:07:23.917Z,95
2018-03-17T08:08:24.695Z,105
2018-03-17T08:09:23.869Z,110
2018-03-17T08:10:24.366Z,110
2018-03-17T08:11:24.084Z,105
2018-03-17T08:12:24.053Z,110
2018-03-17T08:13:24.577Z,105
2018-03-17T08:14:24.359Z,105
2018-03-17T08:15:23.976Z,95
2018-03-17T08:16:23.954Z,85
2018-03-17T08:17:23.965Z,90
2018-03-17T08:18:23.645Z,90
2018-03-17T08:19:24.456Z,85
2018-03-17T08:20:23.841Z,75
2018-03-17T08:21:23.812Z,90
2018-03-17T08:22:23.826Z,95
2018-03-17T08:23:24.033Z,95
2018-03-17T08:24:23.217Z,95
2018-03-17T08:25:24.058Z,95
2018-03-17T08:26:23.444Z,95
2018-03-17T08:27:23.931Z,95
2018-03-17T08:28:24.169Z,105
2018-03-17T08:29:23.612Z,115
2018-03-17T08:30:23.854Z,110
2018-03-17T08:31:23.890Z,105
2018-03-17T08:32:23.804Z,85
2018-03-17T08:33:24.094Z,95
2018-03-17T08:34:23.775Z,90
2018-03-17T08:35:23.185Z,90
2018-03-17T08:36:23.434Z,95
2018-03-17T08:37:23.138Z,100
2018-03-17T08:38:23.912Z,95
2018-03-17T08:39:23.362Z,105
2018-03-17T08:40:23.060Z,110
2018-03-17T08:41:23.562Z,105
2018-03-17T08:42:23.047Z,110
2018-03-17T08:43:23.866Z,105
2018-03-17T08:44:23.504Z,105
2018-03-17T08:45:23.469Z,120
2018-03-17T08:46:23.439Z,130
2018-03-17T08:47:23.694Z,130
2018-03-17T08:48:23.123Z,135
2018-03-17T08:49:23.647Z,125
2018-03-17T08:50:23.613Z,125
2018-03-17T08:51:23.310Z,140
2018-03-17T08:52:23.026Z,140
2018-03-17T08:53:22.998Z,135
2018-03-17T08:54:23.236Z,120
2018-03-17T08:55:22.408Z,120
2018-03-17T08:56:23.199Z,125
2018-03-17T08:57:23.212Z,125
2018-03-17T08:58:23.139Z,135
2018-03-17T08:59:22.898Z,130
2018-03-17T09:00:23.080Z,130
2018-03-17T09:01:23.058Z,135
2018-03-17T09:02:22.883Z,135
2018-03-17T09:03:22.740Z,145
2018-03-17T09:04:22.450Z,135
2018-03-17T09:05:22.423Z,125
2018-03-17T09:06:22.926Z,125
2018-03-17T09:07:22.373Z,120
2018-03-17T09:08:22.880Z,115
2018-03-17T09:09:22.609Z,115
2018-03-17T09:10:22.564Z,110
2018-03-17T09:11:22.541Z,140
2018-03-17T09:12:21.995Z,150
2018-03-17T09:13:22.507Z,130
2018-03-17T09:14:22.456Z,115
2018-03-17T09:15:21.913Z,145
2018-03-17T09:16:21.879Z,160
2018-03-17T09:17:22.383Z,170
2018-03-17T09:18:22.622Z,160
2018-03-17T09:19:22.341Z,185
2018-03-17T09:20:22.570Z,145
2018-03-17T09:21:22.286Z,140
2018-03-17T09:22:22.532Z,180
2018-03-17T09:23:22.553Z,165
2018-03-17T09:24:22.324Z,175
2018-03-17T09:25:22.718Z,170
2018-03-17T09:26:22.691Z,175
2018-03-17T09:27:22.677Z,180
2018-03-17T09:28:21.572Z,175
2018-03-17T09:29:21.814Z,135
2018-03-17T09:30:22.062Z,140
2018-03-17T09:31:22.563Z,175
2018-03-17T09:32:22.005Z,120
2018-03-17T09:33:21.711Z,145
2018-03-17T09:34:22.211Z,155
2018-03-17T09:35:21.934Z,165
2018-03-17T09:36:22.161Z,125
2018-03-17T09:37:21.608Z,120
2018-03-17T09:38:21.857Z,125
2018-03-17T09:39:21.833Z,135
2018-03-17T09:40:22.338Z,125
2018-03-17T09:41:22.302Z,135
2018-03-17T09:42:22.084Z,150
2018-03-17T09:43:21.998Z,130
2018-03-17T09:44:21.981Z,120
2018-03-17T09:45:22.208Z,145
2018-03-17T09:46:21.927Z,160
2018-03-17T09:47:21.634Z,160
2018-03-17T09:48:21.066Z,165
2018-03-17T09:49:22.441Z,190
2018-03-17T09:50:21.015Z,160
2018-03-17T09:51:21.832Z,140
2018-03-17T09:52:21.968Z,150
2018-03-17T09:53:21.747Z,165
2018-03-17T09:54:21.230Z,150
2018-03-17T09:55:21.695Z,125
2018-03-17T09:56:21.407Z,140
2018-03-17T09:57:21.955Z,140
2018-03-17T09:58:21.467Z,140
2018-03-17T09:59:21.866Z,140
2018-03-17T10:00:21.907Z,140
2018-03-17T10:01:21.279Z,165
2018-03-17T10:02:21.516Z,175
2018-03-17T10:03:21.227Z,160
2018-03-17T10:04:21.216Z,195
2018-03-17T10:05:21.176Z,215
2018-03-17T10:06:21.147Z,200
2018-03-17T10:07:21.121Z,180
2018-03-17T10:08:21.365Z,165
2018-03-17T10:09:21.346Z,160
2018-03-17T10:10:21.046Z,185
2018-03-17T10:11:20.768Z,165
2018-03-17T10:12:21.004Z,215
2018-03-17T10:13:20.721Z,180
2018-03-17T10:14:20.998Z,185
2018-03-17T10:15:20.662Z,190
2018-03-17T10:16:20.898Z,195
2018-03-17T10:17:21.414Z,195
2018-03-17T10:18:21.431Z,210
2018-03-17T10:19:20.821Z,225
2018-03-17T10:20:20.536Z,170
2018-03-17T10:21:20.511Z,180
2018-03-17T10:22:20.222Z,190
2018-03-17T10:23:20.728Z,210
2018-03-17T10:24:20.789Z,195
2018-03-17T10:25:21.212Z,175
2018-03-17T10:26:20.922Z,165
2018-03-17T10:27:20.634Z,200
2018-03-17T10:28:20.604Z,220
2018-03-17T10:29:20.840Z,245
2018-03-17T10:30:20.292Z,285
2018-03-17T10:31:20.818Z,290
2018-03-17T10:32:21.040Z,365
2018-03-17T10:33:19.962Z,315
2018-03-17T10:34:20.809Z,260
2018-03-17T10:35:20.489Z,250
2018-03-17T10:36:20.701Z,220
2018-03-17T10:37:20.641Z,260
2018-03-17T10:38:20.619Z,215
2018-03-17T10:39:19.803Z,175
2018-03-17T10:40:20.298Z,170
2018-03-17T10:41:20.295Z,195
2018-03-17T10:42:20.656Z,155
2018-03-17T10:43:20.238Z,145
2018-03-17T10:44:20.484Z,185
2018-03-17T10:45:19.653Z,175
2018-03-17T10:46:19.893Z,175
2018-03-17T10:47:20.405Z,185
2018-03-17T10:48:19.840Z,190
2018-03-17T10:49:20.346Z,205
2018-03-17T10:50:20.318Z,195
2018-03-17T10:51:20.037Z,165
2018-03-17T10:52:20.272Z,170
2018-03-17T10:53:19.716Z,195
2018-03-17T10:54:20.310Z,200
2018-03-17T10:55:19.935Z,175
2018-03-17T10:56:19.915Z,180
2018-03-17T10:57:19.894Z,210
2018-03-17T10:58:19.872Z,185
2018-03-17T10:59:19.835Z,195
2018-03-17T11:00:19.866Z,220
2018-03-17T11:01:19.778Z,190
2018-03-17T11:02:20.294Z,185
2018-03-17T11:03:19.745Z,215
2018-03-17T11:04:20.271Z,215
2018-03-17T11:05:19.702Z,200
2018-03-17T11:06:20.425Z,200
2018-03-17T11:07:19.636Z,200
2018-03-17T11:08:20.136Z,210
2018-03-17T11:09:19.594Z,190
2018-03-17T11:10:19.558Z,210
2018-03-17T11:11:19.857Z,215
2018-03-17T11:12:19.518Z,235
2018-03-17T11:13:19.493Z,230
2018-03-17T11:14:19.604Z,225
2018-03-17T11:15:19.738Z,235
2018-03-17T11:16:19.947Z,235
2018-03-17T11:17:19.659Z,260
2018-03-17T11:18:19.107Z,295
2018-03-17T11:19:19.624Z,260
2018-03-17T11:20:20.000Z,240
2018-03-17T11:21:18.761Z,235
2018-03-17T11:22:19.269Z,205
2018-03-17T11:23:19.240Z,185
2018-03-17T11:24:19.502Z,180
2018-03-17T11:25:19.732Z,175
2018-03-17T11:26:19.164Z,225
2018-03-17T11:27:18.877Z,240
2018-03-17T11:28:19.382Z,220
2018-03-17T11:29:19.092Z,180
2018-03-17T11:30:19.065Z,145
2018-03-17T11:31:19.617Z,140
2018-03-17T11:32:18.868Z,150
2018-03-17T11:33:19.264Z,145
2018-03-17T11:34:19.576Z,140
2018-03-17T11:35:18.737Z,125
2018-03-17T11:36:18.922Z,115
2018-03-17T11:37:18.636Z,130
2018-03-17T11:38:18.870Z,160
2018-03-17T11:39:18.850Z,170
2018-03-17T11:40:18.832Z,180
2018-03-17T11:41:19.094Z,180
2018-03-17T11:42:19.388Z,185
2018-03-17T11:43:19.294Z,205
2018-03-17T11:44:18.989Z,245
2018-03-17T11:45:18.709Z,225
2018-03-17T11:46:18.672Z,220
2018-03-17T11:47:18.379Z,235
2018-03-17T11:48:18.359Z,235
2018-03-17T11:49:18.340Z,195
2018-03-17T11:50:19.042Z,240
2018-03-17T11:51:18.550Z,225
2018-03-17T11:52:18.256Z,205
2018-03-17T11:53:18.776Z,200
2018-03-17T11:54:18.204Z,210
2018-03-17T11:55:18.450Z,200
2018-03-17T11:56:18.702Z,220
2018-03-17T11:57:18.402Z,185
2018-03-17T11:58:18.656Z,200
2018-03-17T11:59:18.883Z,175
2018-03-17T12:00:18.595Z,175
2018-03-17T12:01:18.294Z,135
2018-03-17T12:02:18.543Z,150
2018-03-17T12:03:18.516Z,135
2018-03-17T12:04:18.498Z,160
2018-03-17T12:05:18.203Z,185
2018-03-17T12:06:18.440Z,175
2018-03-17T12:07:18.420Z,170
2018-03-17T12:08:17.602Z,185
2018-03-17T12:09:18.379Z,185
2018-03-17T12:10:18.131Z,205
2018-03-17T12:11:18.385Z,190
2018-03-17T12:12:17.505Z,190
2018-03-17T12:13:17.795Z,175
2018-03-17T12:14:18.253Z,155
2018-03-17T12:15:18.222Z,150
2018-03-17T12:16:17.662Z,145
2018-03-17T12:17:18.173Z,165
2018-03-17T12:18:17.889Z,195
2018-03-17T12:19:17.876Z,205
2018-03-17T12:20:17.303Z,200
2018-03-17T12:21:18.080Z,195
2018-03-17T12:22:17.515Z,195
2018-03-17T12:23:17.498Z,180
2018-03-17T12:24:17.793Z,160
2018-03-17T12:25:17.448Z,190
2018-03-17T12:26:17.687Z,165
2018-03-17T12:27:17.940Z,130
2018-03-17T12:28:17.642Z,110
2018-03-17T12:29:18.143Z,125
2018-03-17T12:30:17.324Z,145
2018-03-17T12:31:17.560Z,145
2018-03-17T12:32:17.281Z,175
2018-03-17T12:33:17.388Z,190
2018-03-17T12:34:17.775Z,175
2018-03-17T12:35:17.465Z,155
2018-03-17T12:36:17.721Z,180
2018-03-17T12:37:17.466Z,180
2018-03-17T12:38:17.929Z,185
2018-03-17T12:39:17.104Z,230
2018-03-17T12:40:21.615Z,305
2018-03-17T12:41:17.347Z,335
2018-03-17T12:42:17.291Z,315
2018-03-17T12:43:17.819Z,230
2018-03-17T12:44:17.526Z,230
2018-03-17T12:45:17.762Z,235
2018-03-17T12:46:17.194Z,225
2018-03-17T12:47:17.451Z,215
2018-03-17T12:48:17.202Z,230
2018-03-17T12:49:17.185Z,195
2018-03-17T12:50:17.100Z,165
2018-03-17T12:51:17.077Z,165
2018-03-17T12:52:17.576Z,180
2018-03-17T12:53:17.026Z,190
2018-03-17T12:54:16.740Z,195
2018-03-17T12:55:16.716Z,175
2018-03-17T12:56:16.955Z,185
2018-03-17T12:57:16.410Z,140
2018-03-17T12:58:17.180Z,135
2018-03-17T12:59:16.889Z,135
2018-03-17T13:00:17.118Z,155
2018-03-17T13:01:17.372Z,115
2018-03-17T13:02:17.335Z,110
2018-03-17T13:03:17.065Z,95
2018-03-17T13:04:16.227Z,110
2018-03-17T13:05:17.267Z,105
2018-03-17T13:06:16.981Z,135
2018-03-17T13:07:16.685Z,140
2018-03-17T13:08:17.248Z,165
2018-03-17T13:09:16.638Z,190
2018-03-17T13:10:16.607Z,185
2018-03-17T13:11:16.582Z,175
2018-03-17T13:12:16.830Z,155
2018-03-17T13:13:16.274Z,175
2018-03-17T13:14:16.277Z,165
2018-03-17T13:15:16.483Z,145
2018-03-17T13:16:16.458Z,160
2018-03-17T13:17:16.473Z,155
2018-03-17T13:18:16.161Z,140
2018-03-17T13:19:16.135Z,125
2018-03-17T13:20:16.366Z,135
2018-03-17T13:21:16.881Z,130
2018-03-17T13:22:16.384Z,135
2018-03-17T13:23:16.833Z,135
2018-03-17T13:24:16.263Z,125
2018-03-17T13:25:16.239Z,120
2018-03-17T13:26:15.948Z,115
2018-03-17T13:27:16.741Z,125
2018-03-17T13:28:16.433Z,110
2018-03-17T13:29:16.139Z,110
2018-03-17T13:30:16.379Z,125
2018-03-17T13:31:16.087Z,140
2018-03-17T13:32:16.063Z,145
2018-03-17T13:33:15.771Z,150
2018-03-17T13:34:16.276Z,160
2018-03-17T13:35:16.258Z,175
2018-03-17T13:36:15.985Z,175
2018-03-17T13:37:15.719Z,155
2018-03-17T13:38:15.918Z,165
2018-03-17T13:39:16.158Z,170
2018-03-17T13:40:15.604Z,165
2018-03-17T13:41:15.846Z,165
2018-03-17T13:42:16.087Z,155
2018-03-17T13:43:16.064Z,140
2018-03-17T13:44:15.788Z,140
2018-03-17T13:45:15.748Z,145
2018-03-17T13:46:15.717Z,155
2018-03-17T13:47:15.968Z,160
2018-03-17T13:48:15.678Z,140
2018-03-17T13:49:15.647Z,145
2018-03-17T13:50:15.560Z,125
2018-03-17T13:51:15.608Z,135
2018-03-17T13:52:15.311Z,120
2018-03-17T13:53:15.328Z,115
2018-03-17T13:54:15.027Z,100
2018-03-17T13:55:15.488Z,95
2018-03-17T13:56:16.002Z,105
2018-03-17T13:57:15.726Z,100
2018-03-17T13:58:15.958Z,95
2018-03-17T13:59:15.133Z,100
2018-03-17T14:00:15.114Z,110
2018-03-17T14:01:15.354Z,115
2018-03-17T14:02:15.109Z,110
2018-03-17T14:03:15.297Z,100
2018-03-17T14:04:15.002Z,120
2018-03-17T14:05:15.798Z,100
2018-03-17T14:06:15.490Z,90
2018-03-17T14:07:14.935Z,105
2018-03-17T14:08:15.182Z,95
2018-03-17T14:09:15.156Z,95
2018-03-17T14:10:15.123Z,75
2018-03-17T14:11:14.828Z,85
2018-03-17T14:12:15.339Z,90
2018-03-17T14:13:15.332Z,90
2018-03-17T14:14:15.298Z,100
2018-03-17T14:15:15.273Z,95
2018-03-17T14:16:15.238Z,95